Time,TemperatureF,DewpointF,PressureIn,WindDirection,WindDirectionDegrees,WindSpeedMPH,WindSpeedGustMPH,Humidity,HourlyPrecipIn,Conditions,Clouds,dailyrainin,SoftwareType,DateUTC
2015-01-27 00:13:00,54.1,50.3,29.98,SW,225,3.7,-999.0,87,-99.99,,,0.00,Acu-Link.com,2015-01-27 05:13:00,
2015-01-27 00:28:00,53.8,50.3,29.98,West,270,2.2,-999.0,88,-99.99,,,0.00,Acu-Link.com,2015-01-27 05:28:00,
2015-01-27 00:43:00,53.4,49.9,29.98,SW,225,2.2,-999.0,88,-99.99,,,0.00,Acu-Link.com,2015-01-27 05:43:00,
2015-01-27 00:58:00,53.4,49.6,29.98,NW,315,2.2,-999.0,87,-99.99,,,0.00,Acu-Link.com,2015-01-27 05:58:00,
2015-01-27 01:13:00,53.4,49.6,29.98,WSW,247,1.7,-999.0,87,-99.99,,,0.00,Acu-Link.com,2015-01-27 06:13:00,
2015-01-27 01:28:00,53.4,49.6,29.98,West,270,1.7,-999.0,87,-99.99,,,0.00,Acu-Link.com,2015-01-27 06:28:00,
2015-01-27 01:43:00,52.7,49.2,29.98,NNW,337,1.1,-999.0,88,-99.99,,,0.00,Acu-Link.com,2015-01-27 06:43:00,
2015-01-27 01:58:00,52.5,49.4,29.97,NW,315,3.2,-999.0,89,-99.99,,,0.00,Acu-Link.com,2015-01-27 06:58:00,
2015-01-27 02:14:00,52.3,49.5,29.97,WNW,292,1.7,-999.0,90,-99.99,,,0.00,Acu-Link.com,2015-01-27 07:14:00,
2015-01-27 02:29:00,51.6,48.8,29.97,SW,225,1.1,-999.0,90,-99.99,,,0.00,Acu-Link.com,2015-01-27 07:29:00,
2015-01-27 02:44:00,50.7,48.5,29.98,WNW,292,1.7,-999.0,92,-99.99,,,0.00,Acu-Link.com,2015-01-27 07:44:00,
2015-01-27 02:59:00,50.5,48.8,29.97,West,270,1.7,-999.0,94,-99.99,,,0.00,Acu-Link.com,2015-01-27 07:59:00,
2015-01-27 03:14:00,50.4,48.7,29.97,SW,225,2.2,-999.0,94,-99.99,,,0.00,Acu-Link.com,2015-01-27 08:14:00,
2015-01-27 03:29:00,50.2,48.5,29.97,WSW,247,1.7,-999.0,94,-99.99,,,0.00,Acu-Link.com,2015-01-27 08:29:00,
2015-01-27 03:45:00,49.8,48.1,29.98,West,270,2.2,-999.0,94,-99.99,,,0.00,Acu-Link.com,2015-01-27 08:45:00,
2015-01-27 04:00:00,49.6,47.9,29.98,West,270,0.0,-999.0,94,-99.99,,,0.00,Acu-Link.com,2015-01-27 09:00:00,
2015-01-27 04:15:00,49.1,47.7,29.98,NNW,337,2.2,-999.0,95,-99.99,,,0.00,Acu-Link.com,2015-01-27 09:15:00,
2015-01-27 04:31:00,49.1,47.7,29.98,SW,225,1.1,-999.0,95,-99.99,,,0.00,Acu-Link.com,2015-01-27 09:31:00,
2015-01-27 04:46:00,49.1,47.7,29.98,WSW,247,2.7,-999.0,95,-99.99,,,0.00,Acu-Link.com,2015-01-27 09:46:00,
2015-01-27 05:01:00,48.7,47.3,30.00,WSW,247,1.1,-999.0,95,-99.99,,,0.00,Acu-Link.com,2015-01-27 10:01:00,
2015-01-27 05:17:00,48.6,47.2,30.00,West,270,1.1,-999.0,95,-99.99,,,0.00,Acu-Link.com,2015-01-27 10:17:00,
2015-01-27 05:32:00,48.4,47.0,30.00,WSW,247,0.0,-999.0,95,-99.99,,,0.00,Acu-Link.com,2015-01-27 10:32:00,
2015-01-27 05:47:00,48.4,47.0,30.01,West,270,0.0,-999.0,95,-99.99,,,0.00,Acu-Link.com,2015-01-27 10:47:00,
2015-01-27 06:02:00,48.0,46.6,30.01,West,270,1.1,-999.0,95,-99.99,,,0.00,Acu-Link.com,2015-01-27 11:02:00,
2015-01-27 06:18:00,48.4,47.3,30.02,West,270,1.7,-999.0,96,-99.99,,,0.00,Acu-Link.com,2015-01-27 11:18:00,
2015-01-27 06:33:00,48.6,47.5,30.03,West,270,2.7,-999.0,96,-99.99,,,0.00,Acu-Link.com,2015-01-27 11:33:00,
2015-01-27 06:48:00,48.7,47.6,30.04,North,0,3.7,-999.0,96,-99.99,,,0.00,Acu-Link.com,2015-01-27 11:48:00,
2015-01-27 07:04:00,48.4,47.3,30.05,NNW,337,4.7,-999.0,96,-99.99,,,0.00,Acu-Link.com,2015-01-27 12:04:00,
2015-01-27 07:19:00,48.2,46.0,30.05,West,270,2.7,-999.0,92,-99.99,,,0.00,Acu-Link.com,2015-01-27 12:19:00,
2015-01-27 07:34:00,48.2,45.1,30.05,NE,45,2.7,-999.0,89,-99.99,,,0.00,Acu-Link.com,2015-01-27 12:34:00,
2015-01-27 07:49:00,48.6,44.6,30.05,NNE,22,3.7,-999.0,86,-99.99,,,0.00,Acu-Link.com,2015-01-27 12:49:00,
2015-01-27 08:05:00,50.9,44.6,30.05,NNW,337,4.2,-999.0,79,-99.99,,,0.00,Acu-Link.com,2015-01-27 13:05:00,
2015-01-27 08:20:00,52.2,44.5,30.06,WNW,292,2.2,-999.0,75,-99.99,,,0.00,Acu-Link.com,2015-01-27 13:20:00,
2015-01-27 08:35:00,53.2,44.0,30.06,NE,45,3.2,-999.0,71,-99.99,,,0.00,Acu-Link.com,2015-01-27 13:35:00,
2015-01-27 08:50:00,53.6,42.5,30.06,WSW,247,5.3,-999.0,66,-99.99,,,0.00,Acu-Link.com,2015-01-27 13:50:00,
2015-01-27 09:06:00,55.0,41.8,30.05,NW,315,2.2,-999.0,61,-99.99,,,0.00,Acu-Link.com,2015-01-27 14:06:00,
2015-01-27 09:21:00,55.9,40.0,30.05,SW,225,1.7,-999.0,55,-99.99,,,0.00,Acu-Link.com,2015-01-27 14:21:00,
2015-01-27 09:36:00,57.2,36.6,30.04,WNW,292,2.7,-999.0,46,-99.99,,,0.00,Acu-Link.com,2015-01-27 14:36:00,
2015-01-27 09:52:00,58.3,35.3,30.03,North,0,6.8,-999.0,42,-99.99,,,0.00,Acu-Link.com,2015-01-27 14:52:00,
2015-01-27 10:07:00,58.6,36.2,30.02,NNE,22,3.7,-999.0,43,-99.99,,,0.00,Acu-Link.com,2015-01-27 15:07:00,
2015-01-27 10:22:00,59.9,36.1,30.03,NNW,337,2.7,-999.0,41,-99.99,,,0.00,Acu-Link.com,2015-01-27 15:22:00,
2015-01-27 10:37:00,61.3,36.8,30.01,NNE,22,3.2,-999.0,40,-99.99,,,0.00,Acu-Link.com,2015-01-27 15:37:00,
2015-01-27 10:53:00,61.5,33.6,30.00,NNW,337,6.8,-999.0,35,-99.99,,,0.00,Acu-Link.com,2015-01-27 15:53:00,
2015-01-27 11:08:00,61.3,32.0,29.98,NNW,337,2.7,-999.0,33,-99.99,,,0.00,Acu-Link.com,2015-01-27 16:08:00,
2015-01-27 11:23:00,61.7,32.3,29.97,SSE,157,2.7,-999.0,33,-99.99,,,0.00,Acu-Link.com,2015-01-27 16:23:00,
2015-01-27 11:38:00,63.5,34.6,29.94,North,0,3.7,-999.0,34,-99.99,,,0.00,Acu-Link.com,2015-01-27 16:38:00,
2015-01-27 11:53:00,63.9,34.2,29.93,West,270,5.8,-999.0,33,-99.99,,,0.00,Acu-Link.com,2015-01-27 16:53:00,
2015-01-27 12:09:00,64.0,33.6,29.91,WNW,292,2.7,-999.0,32,-99.99,,,0.00,Acu-Link.com,2015-01-27 17:09:00,
2015-01-27 12:24:00,65.1,36.0,29.89,SW,225,6.8,-999.0,34,-99.99,,,0.00,Acu-Link.com,2015-01-27 17:24:00,
2015-01-27 12:39:00,65.1,36.8,29.89,NNE,22,7.8,-999.0,35,-99.99,,,0.00,Acu-Link.com,2015-01-27 17:39:00,
2015-01-27 12:54:00,65.7,38.7,29.88,ENE,67,7.3,-999.0,37,-99.99,,,0.00,Acu-Link.com,2015-01-27 17:54:00,
2015-01-27 13:09:00,65.1,40.2,29.87,West,270,4.7,-999.0,40,-99.99,,,0.00,Acu-Link.com,2015-01-27 18:09:00,
2015-01-27 13:24:00,65.3,41.0,29.87,West,270,4.7,-999.0,41,-99.99,,,0.00,Acu-Link.com,2015-01-27 18:24:00,
2015-01-27 13:39:00,65.8,41.4,29.89,NNW,337,7.8,-999.0,41,-99.99,,,0.00,Acu-Link.com,2015-01-27 18:39:00,
2015-01-27 13:54:00,66.2,42.4,29.89,NNW,337,7.3,-999.0,42,-99.99,,,0.00,Acu-Link.com,2015-01-27 18:54:00,
2015-01-27 14:10:00,66.2,42.4,29.87,SW,225,5.8,-999.0,42,-99.99,,,0.00,Acu-Link.com,2015-01-27 19:10:00,
2015-01-27 14:25:00,67.1,42.6,29.85,West,270,8.3,-999.0,41,-99.99,,,0.00,Acu-Link.com,2015-01-27 19:25:00,
2015-01-27 14:40:00,67.3,43.4,29.85,NNW,337,6.3,-999.0,42,-99.99,,,0.00,Acu-Link.com,2015-01-27 19:40:00,
2015-01-27 14:55:00,67.6,43.7,29.85,SW,225,4.7,-999.0,42,-99.99,,,0.00,Acu-Link.com,2015-01-27 19:55:00,
2015-01-27 15:10:00,67.8,43.9,29.87,WSW,247,7.3,-999.0,42,-99.99,,,0.00,Acu-Link.com,2015-01-27 20:10:00,
2015-01-27 15:26:00,67.8,44.5,29.84,West,270,5.8,-999.0,43,-99.99,,,0.00,Acu-Link.com,2015-01-27 20:26:00,
2015-01-27 15:41:00,68.4,44.4,29.85,West,270,6.8,-999.0,42,-99.99,,,0.00,Acu-Link.com,2015-01-27 20:41:00,
2015-01-27 15:56:00,68.0,45.3,29.88,WSW,247,2.2,-999.0,44,-99.99,,,0.00,Acu-Link.com,2015-01-27 20:56:00,